Time;durP1;ratioP1;P1;durP2;ratioP2;P2;SDS_P1;SDS_P2;PMS_P1;PMS_P2;Temp;Humidity;BMP_temperature;BMP_pressure;BME280_temperature;BME280_humidity;BME280_pressure;Samples;Min_cycle;Max_cycle;Signal;HPM_P1;HPM_P2
2021/11/25 00:01:17;;;;;;;41.38;18.40;;;;;;;;;;5050311;28;20497;-75
2021/11/25 00:03:44;;;;;;;50.15;20.35;;;;;;;;;;5058579;28;20583;-75
2021/11/25 00:06:10;;;;;;;48.53;20.00;;;;;;;;;;5037811;28;20048;-74
2021/11/25 00:08:37;;;;;;;53.72;22.92;;;;;;;;;;5044736;28;20456;-73
2021/11/25 00:11:04;;;;;;;55.70;22.17;;;;;;;;;;5058294;28;20048;-74
2021/11/25 00:13:30;;;;;;;52.28;21.38;;;;;;;;;;5032204;28;20048;-74
2021/11/25 00:15:57;;;;;;;47.33;19.75;;;;;;;;;;5057906;28;20055;-72
2021/11/25 00:18:23;;;;;;;44.25;19.10;;;;;;;;;;5049661;28;20126;-73
2021/11/25 00:20:49;;;;;;;44.92;19.40;;;;;;;;;;5034830;28;20074;-73
2021/11/25 00:23:16;;;;;;;42.97;19.88;;;;;;;;;;5035346;28;20225;-73
2021/11/25 00:25:42;;;;;;;44.15;18.58;;;;;;;;;;5049657;28;20667;-74
2021/11/25 00:28:09;;;;;;;47.42;19.05;;;;;;;;;;5058901;28;20051;-74
2021/11/25 00:30:35;;;;;;;45.95;20.05;;;;;;;;;;5051523;28;20099;-73
2021/11/25 00:33:02;;;;;;;46.80;19.40;;;;;;;;;;5059653;28;20044;-74
2021/11/25 00:35:29;;;;;;;45.03;19.23;;;;;;;;;;5047006;28;20460;-73
2021/11/25 00:37:55;;;;;;;45.95;19.60;;;;;;;;;;5052599;28;20049;-73
2021/11/25 00:40:21;;;;;;;49.33;20.90;;;;;;;;;;5058942;28;20045;-74
2021/11/25 00:42:48;;;;;;;52.35;21.83;;;;;;;;;;5048889;28;20506;-73
2021/11/25 00:45:15;;;;;;;51.22;20.63;;;;;;;;;;5039932;28;20051;-73
2021/11/25 00:47:42;;;;;;;48.80;19.95;;;;;;;;;;5048576;28;20075;-74
2021/11/25 00:50:09;;;;;;;46.65;19.48;;;;;;;;;;5050623;28;20052;-74
2021/11/25 00:52:36;;;;;;;42.85;19.13;;;;;;;;;;5051237;28;20049;-74
2021/11/25 00:55:02;;;;;;;48.30;19.10;;;;;;;;;;5059452;28;20072;-74
2021/11/25 00:57:29;;;;;;;53.92;22.75;;;;;;;;;;5061011;28;20421;-73
2021/11/25 00:59:55;;;;;;;49.67;22.02;;;;;;;;;;5052067;28;20053;-74
2021/11/25 01:02:22;;;;;;;49.08;21.02;;;;;;;;;;5056245;28;20048;-74
2021/11/25 01:04:48;;;;;;;47.15;21.17;;;;;;;;;;5048085;28;20044;-74
2021/11/25 01:07:15;;;;;;;46.70;20.48;;;;;;;;;;5059961;28;20044;-73
2021/11/25 01:09:41;;;;;;;49.33;20.67;;;;;;;;;;5052956;28;20488;-74
2021/11/25 01:12:09;;;;;;;46.35;19.52;;;;;;;;;;5039502;28;20049;-74
2021/11/25 01:14:36;;;;;;;50.53;22.17;;;;;;;;;;5041254;28;20189;-74
2021/11/25 01:17:03;;;;;;;54.80;21.48;;;;;;;;;;5047828;28;20498;-74
2021/11/25 01:19:29;;;;;;;47.88;20.88;;;;;;;;;;5058858;28;20536;-74
2021/11/25 01:21:55;;;;;;;47.53;19.00;;;;;;;;;;5051325;28;20041;-74
2021/11/25 01:24:22;;;;;;;48.13;20.88;;;;;;;;;;5060181;28;20056;-74
2021/11/25 01:26:48;;;;;;;47.92;20.23;;;;;;;;;;5035863;28;20053;-74
2021/11/25 01:29:15;;;;;;;45.55;19.55;;;;;;;;;;5055012;28;20052;-74
2021/11/25 01:31:41;;;;;;;47.63;19.95;;;;;;;;;;5054060;28;20131;-74
2021/11/25 01:34:07;;;;;;;43.40;17.63;;;;;;;;;;5052973;28;20159;-74
2021/11/25 01:36:37;;;;;;;43.10;18.48;;;;;;;;;;5041827;28;20281;-74
2021/11/25 01:39:04;;;;;;;44.92;19.67;;;;;;;;;;5053905;28;20056;-74
2021/11/25 01:41:30;;;;;;;51.70;20.90;;;;;;;;;;5058940;28;20074;-74
2021/11/25 01:43:56;;;;;;;42.10;18.67;;;;;;;;;;5047557;28;20433;-74
2021/11/25 01:46:23;;;;;;;45.00;19.52;;;;;;;;;;5053959;28;20048;-74
2021/11/25 01:48:49;;;;;;;45.83;19.55;;;;;;;;;;5060339;28;20071;-74
2021/11/25 01:51:17;;;;;;;48.33;18.90;;;;;;;;;;5052977;28;20048;-74
2021/11/25 01:53:44;;;;;;;46.88;19.23;;;;;;;;;;5059058;28;20414;-73
2021/11/25 01:56:10;;;;;;;47.45;20.52;;;;;;;;;;5051251;28;20040;-73
2021/11/25 01:58:37;;;;;;;50.63;20.77;;;;;;;;;;5051606;28;20058;-74
2021/11/25 02:01:06;;;;;;;50.35;20.13;;;;;;;;;;5051771;28;20041;-74
2021/11/25 02:03:32;;;;;;;45.58;19.38;;;;;;;;;;5059757;28;20161;-74
2021/11/25 02:05:59;;;;;;;48.83;18.15;;;;;;;;;;5041539;28;20053;-74
2021/11/25 02:08:25;;;;;;;47.42;19.83;;;;;;;;;;5051650;28;20052;-74
2021/11/25 02:10:54;;;;;;;47.35;18.65;;;;;;;;;;5055967;28;20216;-74
2021/11/25 02:13:21;;;;;;;50.65;21.08;;;;;;;;;;5046150;28;20052;-74
2021/11/25 02:15:48;;;;;;;38.88;17.55;;;;;;;;;;5059313;28;20404;-74
2021/11/25 02:18:17;;;;;;;41.17;20.02;;;;;;;;;;5051705;28;20512;-74
2021/11/25 02:20:46;;;;;;;42.80;19.02;;;;;;;;;;5058580;28;20067;-74
2021/11/25 02:23:13;;;;;;;44.15;20.05;;;;;;;;;;5060260;28;20690;-74
2021/11/25 02:25:40;;;;;;;36.72;17.02;;;;;;;;;;5027683;28;20055;-74
2021/11/25 02:28:07;;;;;;;50.67;19.50;;;;;;;;;;5038927;28;20047;-73
2021/11/25 02:30:36;;;;;;;45.35;19.55;;;;;;;;;;5053483;28;20568;-74
2021/11/25 02:33:03;;;;;;;42.97;19.08;;;;;;;;;;5060437;28;20409;-74
2021/11/25 02:35:31;;;;;;;48.25;20.10;;;;;;;;;;5052734;28;20047;-74
2021/11/25 02:37:57;;;;;;;49.22;20.38;;;;;;;;;;5054317;28;20048;-74
2021/11/25 02:40:26;;;;;;;44.42;19.67;;;;;;;;;;5048870;28;20056;-73
2021/11/25 02:42:58;;;;;;;43.22;18.25;;;;;;;;;;5057097;28;20518;-74
2021/11/25 02:45:25;;;;;;;39.95;19.48;;;;;;;;;;5058135;28;20044;-74
2021/11/25 02:47:52;;;;;;;42.30;20.05;;;;;;;;;;5050103;28;20052;-74
2021/11/25 02:50:19;;;;;;;43.08;18.50;;;;;;;;;;5058330;28;20497;-73
2021/11/25 02:52:46;;;;;;;39.22;18.23;;;;;;;;;;5049579;28;20409;-73
2021/11/25 02:55:12;;;;;;;42.08;18.60;;;;;;;;;;5040089;28;20409;-73
2021/11/25 02:57:39;;;;;;;39.70;18.02;;;;;;;;;;5055993;28;20052;-73
2021/11/25 03:00:14;;;;;;;43.88;20.40;;;;;;;;;;5054334;28;20144;-74
2021/11/25 03:02:40;;;;;;;43.42;20.23;;;;;;;;;;5055630;28;20055;-74
2021/11/25 03:05:09;;;;;;;48.10;19.65;;;;;;;;;;5046745;28;20060;-73
2021/11/25 03:07:35;;;;;;;39.63;18.92;;;;;;;;;;5041464;28;20489;-73
2021/11/25 03:10:02;;;;;;;47.00;21.10;;;;;;;;;;5054257;28;20071;-73
2021/11/25 03:12:28;;;;;;;44.10;19.90;;;;;;;;;;5062447;28;20524;-73
2021/11/25 03:14:55;;;;;;;40.20;20.30;;;;;;;;;;5053592;28;20048;-73
2021/11/25 03:17:21;;;;;;;45.00;19.83;;;;;;;;;;5054816;28;20547;-73
2021/11/25 03:19:48;;;;;;;43.83;19.88;;;;;;;;;;5061162;28;20152;-73
2021/11/25 03:22:14;;;;;;;43.53;20.70;;;;;;;;;;5055259;28;20370;-73
2021/11/25 03:24:40;;;;;;;43.08;20.70;;;;;;;;;;5061434;28;20052;-73
2021/11/25 03:27:07;;;;;;;38.80;20.77;;;;;;;;;;5054463;28;20053;-73
2021/11/25 03:29:33;;;;;;;37.75;20.02;;;;;;;;;;5057738;28;20059;-73
2021/11/25 03:31:59;;;;;;;37.42;20.13;;;;;;;;;;5050138;28;20059;-73
2021/11/25 03:34:26;;;;;;;40.75;20.08;;;;;;;;;;5060752;28;20045;-73
2021/11/25 03:36:52;;;;;;;41.35;22.05;;;;;;;;;;5063472;28;20048;-73
2021/11/25 03:39:18;;;;;;;42.47;21.05;;;;;;;;;;5057127;28;20051;-73
2021/11/25 03:41:45;;;;;;;37.08;20.80;;;;;;;;;;5063623;28;20052;-73
2021/11/25 03:44:11;;;;;;;37.75;20.70;;;;;;;;;;5052091;28;20062;-73
2021/11/25 03:46:37;;;;;;;34.38;19.17;;;;;;;;;;5039574;28;20421;-73
2021/11/25 03:49:04;;;;;;;37.90;21.30;;;;;;;;;;5057963;28;20052;-73
2021/11/25 03:51:30;;;;;;;33.80;19.48;;;;;;;;;;5044058;28;20051;-73
2021/11/25 03:53:56;;;;;;;41.45;21.77;;;;;;;;;;5063128;28;20048;-73
2021/11/25 03:56:23;;;;;;;41.50;21.95;;;;;;;;;;5055380;28;20048;-73
2021/11/25 03:58:49;;;;;;;38.17;21.42;;;;;;;;;;5060326;28;20048;-73
2021/11/25 04:01:16;;;;;;;40.05;21.48;;;;;;;;;;5053638;28;20110;-73
2021/11/25 04:03:43;;;;;;;37.67;21.23;;;;;;;;;;5061232;28;20057;-73
2021/11/25 04:06:09;;;;;;;43.83;21.58;;;;;;;;;;5060857;28;20052;-73
2021/11/25 04:08:36;;;;;;;38.20;21.88;;;;;;;;;;5046955;28;20509;-73
2021/11/25 04:11:03;;;;;;;37.58;21.17;;;;;;;;;;5056110;28;20049;-73
2021/11/25 04:13:29;;;;;;;43.47;22.48;;;;;;;;;;5053099;28;20785;-73
2021/11/25 04:15:56;;;;;;;38.53;21.58;;;;;;;;;;5042596;28;20063;-73
2021/11/25 04:18:22;;;;;;;41.08;20.73;;;;;;;;;;5055347;28;20048;-73
2021/11/25 04:20:48;;;;;;;38.05;20.98;;;;;;;;;;5060435;28;20076;-73
2021/11/25 04:23:15;;;;;;;39.75;21.50;;;;;;;;;;5056229;28;20048;-73
2021/11/25 04:25:41;;;;;;;36.85;21.17;;;;;;;;;;5029563;28;20040;-73
2021/11/25 04:28:08;;;;;;;39.78;22.17;;;;;;;;;;5061848;28;20381;-73
2021/11/25 04:35:53;;;;;;;40.30;22.27;;;;;;;;;;5048669;28;20724;-73
2021/11/25 04:38:21;;;;;;;38.92;22.05;;;;;;;;;;5039572;28;20485;-74
2021/11/25 04:40:54;;;;;;;37.13;21.15;;;;;;;;;;5035695;28;20087;-73
2021/11/25 04:43:21;;;;;;;44.90;22.58;;;;;;;;;;5061522;28;20733;-73
2021/11/25 04:45:48;;;;;;;41.42;21.90;;;;;;;;;;5062016;28;20087;-73
2021/11/25 04:48:16;;;;;;;41.85;21.83;;;;;;;;;;5056310;28;20136;-73
2021/11/25 04:50:42;;;;;;;40.70;22.13;;;;;;;;;;5057880;28;20104;-73
2021/11/25 04:53:12;;;;;;;39.83;21.95;;;;;;;;;;5049795;28;20048;-73
2021/11/25 04:55:40;;;;;;;40.20;22.77;;;;;;;;;;5061779;28;20045;-73
2021/11/25 04:58:07;;;;;;;41.72;21.67;;;;;;;;;;5056230;28;20497;-73
2021/11/25 05:00:34;;;;;;;41.55;22.23;;;;;;;;;;5060720;28;20086;-73
2021/11/25 05:03:01;;;;;;;37.08;20.58;;;;;;;;;;5059615;28;20099;-73
2021/11/25 05:05:27;;;;;;;40.85;21.75;;;;;;;;;;5031115;28;20293;-73
2021/11/25 05:07:54;;;;;;;41.33;23.20;;;;;;;;;;5043035;28;20058;-73
2021/11/25 05:10:20;;;;;;;39.90;23.08;;;;;;;;;;5056223;28;21187;-73
2021/11/25 05:12:47;;;;;;;38.78;20.95;;;;;;;;;;5061719;28;20086;-73
2021/11/25 05:15:14;;;;;;;40.70;23.70;;;;;;;;;;5054219;28;20449;-73
2021/11/25 05:17:40;;;;;;;40.40;19.98;;;;;;;;;;5056964;28;20693;-73
2021/11/25 05:20:08;;;;;;;39.05;21.48;;;;;;;;;;5051951;28;20056;-74
2021/11/25 05:22:35;;;;;;;40.90;23.33;;;;;;;;;;5042561;28;20059;-73
2021/11/25 05:25:02;;;;;;;42.10;23.45;;;;;;;;;;5043281;28;20541;-73
2021/11/25 05:27:28;;;;;;;40.65;23.25;;;;;;;;;;5052734;28;20044;-73
2021/11/25 05:29:54;;;;;;;41.20;22.08;;;;;;;;;;5059450;28;20053;-73
2021/11/25 05:32:21;;;;;;;39.47;22.30;;;;;;;;;;5048644;28;20056;-73
2021/11/25 05:34:47;;;;;;;43.45;25.23;;;;;;;;;;5054419;28;20481;-73
2021/11/25 05:37:14;;;;;;;37.67;22.35;;;;;;;;;;5055874;28;20394;-74
2021/11/25 05:39:40;;;;;;;40.88;22.38;;;;;;;;;;5058307;28;20416;-74
2021/11/25 05:42:08;;;;;;;45.45;24.67;;;;;;;;;;5041085;28;20397;-73
2021/11/25 05:44:35;;;;;;;41.28;25.20;;;;;;;;;;5051767;28;20048;-73
2021/11/25 05:47:01;;;;;;;45.03;24.60;;;;;;;;;;5052984;28;20338;-73
2021/11/25 05:49:27;;;;;;;46.15;24.40;;;;;;;;;;5052121;28;20519;-73
2021/11/25 05:51:54;;;;;;;40.08;23.23;;;;;;;;;;5058560;28;20044;-73
2021/11/25 05:54:20;;;;;;;45.75;25.42;;;;;;;;;;5051904;28;20520;-73
2021/11/25 05:56:46;;;;;;;43.05;24.30;;;;;;;;;;5057351;28;20071;-73
2021/11/25 05:59:13;;;;;;;42.75;23.90;;;;;;;;;;5054345;28;20049;-73
2021/11/25 06:01:39;;;;;;;40.83;24.65;;;;;;;;;;5044744;28;20717;-73
2021/11/25 06:04:05;;;;;;;43.38;24.88;;;;;;;;;;5056253;28;20041;-73
2021/11/25 06:06:32;;;;;;;42.83;24.58;;;;;;;;;;5033500;28;20056;-73
2021/11/25 06:08:58;;;;;;;44.97;25.13;;;;;;;;;;5057036;28;20052;-73
2021/11/25 06:11:25;;;;;;;42.30;25.05;;;;;;;;;;5058316;28;20064;-73
2021/11/25 06:13:51;;;;;;;44.95;25.33;;;;;;;;;;5053455;28;20051;-73
2021/11/25 06:16:19;;;;;;;45.90;26.38;;;;;;;;;;5060514;28;20040;-73
2021/11/25 06:18:45;;;;;;;44.83;25.52;;;;;;;;;;5053001;28;20044;-73
2021/11/25 06:21:11;;;;;;;50.13;26.20;;;;;;;;;;5041336;28;20500;-73
2021/11/25 06:23:39;;;;;;;45.65;25.85;;;;;;;;;;5047819;28;20131;-73
2021/11/25 06:26:05;;;;;;;48.17;26.45;;;;;;;;;;5050810;28;20056;-73
2021/11/25 06:28:32;;;;;;;45.90;26.63;;;;;;;;;;5057616;28;20056;-73
2021/11/25 06:30:58;;;;;;;48.05;25.98;;;;;;;;;;5050514;28;20501;-73
2021/11/25 06:33:24;;;;;;;48.90;27.23;;;;;;;;;;5059497;28;20056;-73
2021/11/25 06:35:51;;;;;;;48.45;27.50;;;;;;;;;;5051277;28;20060;-73
2021/11/25 06:38:19;;;;;;;51.30;27.10;;;;;;;;;;5034789;28;20040;-73
2021/11/25 06:40:46;;;;;;;46.75;26.45;;;;;;;;;;5045018;28;20052;-73
2021/11/25 06:43:13;;;;;;;47.67;27.00;;;;;;;;;;5057048;28;20064;-73
2021/11/25 06:45:41;;;;;;;46.05;27.45;;;;;;;;;;5057937;28;20516;-73
2021/11/25 06:48:08;;;;;;;;;;;;;;;;;;5050545;28;20052;-73
2021/11/25 06:50:34;;;;;;;47.78;26.60;;;;;;;;;;5058121;28;19935;-73
2021/11/25 06:53:01;;;;;;;45.83;25.67;;;;;;;;;;5044325;28;20139;-73
2021/11/25 06:55:27;;;;;;;46.13;25.52;;;;;;;;;;5037644;28;20389;-73
2021/11/25 06:57:54;;;;;;;46.10;26.33;;;;;;;;;;5050986;28;20049;-73
2021/11/25 07:00:22;;;;;;;51.65;29.42;;;;;;;;;;5039021;28;20056;-73
2021/11/25 07:02:52;;;;;;;48.22;28.25;;;;;;;;;;5040368;28;20053;-73
2021/11/25 07:05:19;;;;;;;50.10;26.10;;;;;;;;;;5048254;28;20052;-73
2021/11/25 07:07:45;;;;;;;49.40;27.20;;;;;;;;;;5052119;28;20502;-73
2021/11/25 07:10:13;;;;;;;48.83;28.30;;;;;;;;;;5050472;28;20052;-74
2021/11/25 07:12:40;;;;;;;54.33;27.88;;;;;;;;;;5059831;28;20053;-72
2021/11/25 07:15:08;;;;;;;50.40;28.00;;;;;;;;;;5053997;28;20052;-72
2021/11/25 07:17:34;;;;;;;45.42;27.23;;;;;;;;;;5058934;28;20036;-72
2021/11/25 07:20:02;;;;;;;47.63;25.88;;;;;;;;;;5055635;28;20678;-74
2021/11/25 07:22:29;;;;;;;49.75;28.30;;;;;;;;;;5030272;28;20052;-72
2021/11/25 07:24:55;;;;;;;47.22;27.30;;;;;;;;;;5040652;28;20478;-74
2021/11/25 07:27:22;;;;;;;45.95;25.92;;;;;;;;;;5033223;28;20052;-73
2021/11/25 07:29:48;;;;;;;48.67;25.33;;;;;;;;;;5058813;28;20045;-72
2021/11/25 07:32:15;;;;;;;48.53;27.17;;;;;;;;;;5053880;28;20048;-72
2021/11/25 07:34:41;;;;;;;45.33;25.45;;;;;;;;;;5053038;28;20064;-72
2021/11/25 07:37:07;;;;;;;44.03;25.30;;;;;;;;;;5038138;28;20052;-72
2021/11/25 07:39:33;;;;;;;48.30;26.50;;;;;;;;;;5035728;28;20048;-72
2021/11/25 07:42:01;;;;;;;45.92;25.90;;;;;;;;;;5061138;28;20052;-72
2021/11/25 07:44:27;;;;;;;44.72;26.10;;;;;;;;;;5052921;28;20048;-73
2021/11/25 07:46:54;;;;;;;51.17;26.38;;;;;;;;;;5057499;28;20122;-74
2021/11/25 07:49:22;;;;;;;45.33;27.08;;;;;;;;;;5044583;28;20055;-74
2021/11/25 07:51:48;;;;;;;47.47;25.20;;;;;;;;;;5055958;28;20049;-74
2021/11/25 07:54:14;;;;;;;48.78;25.45;;;;;;;;;;5058036;28;20044;-74
2021/11/25 07:56:41;;;;;;;50.22;27.88;;;;;;;;;;5053405;28;20489;-74
2021/11/25 07:59:07;;;;;;;44.85;26.58;;;;;;;;;;5061192;28;20548;-74
2021/11/25 08:01:34;;;;;;;43.95;26.23;;;;;;;;;;5034113;28;20041;-72
2021/11/25 08:04:01;;;;;;;45.70;25.88;;;;;;;;;;5062894;28;20832;-73
2021/11/25 08:06:28;;;;;;;46.92;26.58;;;;;;;;;;5056897;28;20067;-74
2021/11/25 08:08:54;;;;;;;49.83;28.15;;;;;;;;;;5062111;28;20044;-72
2021/11/25 08:11:21;;;;;;;47.67;26.45;;;;;;;;;;5061153;28;20060;-72
2021/11/25 08:13:47;;;;;;;53.53;27.90;;;;;;;;;;5030673;28;20053;-72
2021/11/25 08:16:15;;;;;;;48.95;27.42;;;;;;;;;;5044300;28;20044;-73
2021/11/25 08:18:41;;;;;;;52.17;28.15;;;;;;;;;;5054897;28;20509;-72
2021/11/25 08:21:08;;;;;;;49.55;27.42;;;;;;;;;;5064053;28;20481;-73
2021/11/25 08:23:35;;;;;;;51.08;29.27;;;;;;;;;;5057879;28;20131;-72
2021/11/25 08:26:01;;;;;;;49.13;28.20;;;;;;;;;;5060379;28;20242;-72
2021/11/25 08:28:36;;;;;;;52.88;28.88;;;;;;;;;;5051674;28;20048;-73
2021/11/25 08:31:03;;;;;;;54.72;29.25;;;;;;;;;;5061321;28;20083;-72
2021/11/25 08:33:29;;;;;;;57.30;28.70;;;;;;;;;;5060623;28;20048;-72
2021/11/25 08:35:56;;;;;;;59.60;30.33;;;;;;;;;;5056266;28;20041;-72
2021/11/25 08:38:23;;;;;;;52.42;28.45;;;;;;;;;;5061570;28;20055;-72
2021/11/25 08:40:49;;;;;;;51.35;29.83;;;;;;;;;;5051249;28;20058;-72
2021/11/25 08:43:17;;;;;;;49.70;28.83;;;;;;;;;;5059883;28;20048;-73
2021/11/25 08:45:44;;;;;;;51.75;28.77;;;;;;;;;;5055775;28;20052;-73
2021/11/25 08:48:10;;;;;;;49.65;27.33;;;;;;;;;;5043973;28;20052;-73
2021/11/25 08:50:36;;;;;;;48.75;27.27;;;;;;;;;;5044453;28;20064;-72
2021/11/25 08:53:03;;;;;;;46.72;26.52;;;;;;;;;;5053768;28;20060;-72
2021/11/25 08:55:35;;;;;;;48.95;27.35;;;;;;;;;;5056012;28;20048;-74
2021/11/25 08:58:02;;;;;;;49.93;27.97;;;;;;;;;;5054408;28;20109;-75
2021/11/25 09:00:29;;;;;;;50.85;28.10;;;;;;;;;;5059666;28;20049;-72
2021/11/25 09:02:56;;;;;;;46.10;27.35;;;;;;;;;;5059201;28;20044;-75
2021/11/25 09:05:24;;;;;;;49.38;28.15;;;;;;;;;;5037426;28;20049;-75
2021/11/25 09:07:50;;;;;;;45.45;26.67;;;;;;;;;;5056393;28;20493;-75
2021/11/25 09:10:16;;;;;;;50.20;28.55;;;;;;;;;;5048394;28;20435;-74
2021/11/25 09:12:43;;;;;;;50.22;27.40;;;;;;;;;;5041476;28;20066;-72
2021/11/25 09:15:21;;;;;;;49.45;27.90;;;;;;;;;;5054319;28;20501;-74
2021/11/25 09:17:48;;;;;;;46.60;27.08;;;;;;;;;;5058536;28;20491;-72
2021/11/25 09:20:23;;;;;;;45.95;26.75;;;;;;;;;;5051916;28;20052;-74
2021/11/25 09:22:49;;;;;;;45.63;26.70;;;;;;;;;;5034007;28;20044;-74
2021/11/25 09:25:16;;;;;;;47.88;27.05;;;;;;;;;;5056096;28;20041;-74
2021/11/25 09:27:45;;;;;;;47.83;26.73;;;;;;;;;;5031600;28;20055;-72
2021/11/25 09:30:11;;;;;;;41.45;25.27;;;;;;;;;;5054676;28;20045;-71
2021/11/25 09:32:38;;;;;;;41.85;25.67;;;;;;;;;;5051165;28;20442;-72
2021/11/25 09:35:04;;;;;;;43.67;26.42;;;;;;;;;;5054570;28;20052;-72
2021/11/25 09:37:31;;;;;;;45.00;25.98;;;;;;;;;;5047318;28;20040;-72
2021/11/25 09:39:57;;;;;;;44.65;25.90;;;;;;;;;;5039107;28;20048;-72
2021/11/25 09:42:23;;;;;;;45.72;27.30;;;;;;;;;;5059085;28;20045;-72
2021/11/25 09:44:51;;;;;;;44.08;25.63;;;;;;;;;;5032579;28;20071;-72
2021/11/25 09:47:18;;;;;;;45.65;26.92;;;;;;;;;;5039472;28;20048;-72
2021/11/25 09:49:45;;;;;;;43.50;25.88;;;;;;;;;;5045803;28;20067;-72
2021/11/25 09:52:11;;;;;;;41.78;26.63;;;;;;;;;;5054331;28;20593;-72
2021/11/25 09:54:39;;;;;;;45.58;25.80;;;;;;;;;;5032504;28;20127;-72
2021/11/25 09:57:05;;;;;;;43.25;26.40;;;;;;;;;;5056539;28;20051;-72
2021/11/25 09:59:32;;;;;;;39.17;25.50;;;;;;;;;;5057821;28;20158;-72
2021/11/25 10:01:58;;;;;;;44.80;25.73;;;;;;;;;;5051406;28;20098;-72
2021/11/25 10:04:25;;;;;;;38.80;24.27;;;;;;;;;;5052010;28;20124;-71
2021/11/25 10:06:56;;;;;;;38.45;24.85;;;;;;;;;;5026596;28;20053;-72
2021/11/25 10:09:33;;;;;;;42.85;24.00;;;;;;;;;;5037807;28;20075;-72
2021/11/25 10:12:00;;;;;;;39.00;24.45;;;;;;;;;;5048668;28;20307;-73
2021/11/25 10:14:37;;;;;;;41.95;25.95;;;;;;;;;;5055272;28;20448;-72
2021/11/25 10:17:04;;;;;;;43.97;25.63;;;;;;;;;;5052736;28;20658;-72
2021/11/25 10:19:31;;;;;;;43.60;25.63;;;;;;;;;;5042982;28;20091;-72
2021/11/25 10:21:59;;;;;;;41.45;24.98;;;;;;;;;;5056141;28;20316;-72
2021/11/25 10:24:36;;;;;;;45.22;26.05;;;;;;;;;;5050485;28;20055;-73
2021/11/25 10:27:32;;;;;;;43.58;26.92;;;;;;;;;;5056628;28;20079;-71
2021/11/25 10:30:16;;;;;;;41.90;25.98;;;;;;;;;;5028600;28;20057;-72
2021/11/25 10:32:56;;;;;;;43.20;25.95;;;;;;;;;;5049530;28;20053;-72
2021/11/25 10:35:31;;;;;;;42.78;27.05;;;;;;;;;;5029903;28;20056;-71
2021/11/25 10:40:35;;;;;;;44.75;27.05;;;;;;;;;;5051834;28;20962;-71
2021/11/25 10:43:20;;;;;;;44.60;25.92;;;;;;;;;;5056529;28;20171;-71
2021/11/25 10:45:48;;;;;;;42.10;25.98;;;;;;;;;;5050886;28;20048;-71
2021/11/25 10:48:25;;;;;;;45.87;26.60;;;;;;;;;;5044101;28;20048;-71
2021/11/25 10:50:51;;;;;;;43.63;27.10;;;;;;;;;;5037671;28;20488;-71
2021/11/25 10:53:17;;;;;;;45.67;26.35;;;;;;;;;;5046886;28;20052;-72
2021/11/25 10:55:44;;;;;;;46.28;27.30;;;;;;;;;;5055046;28;20044;-71
2021/11/25 10:58:12;;;;;;;43.47;26.80;;;;;;;;;;5030357;28;20048;-71
2021/11/25 11:00:40;;;;;;;46.40;28.60;;;;;;;;;;5049073;28;20103;-71
2021/11/25 11:03:07;;;;;;;46.42;28.00;;;;;;;;;;5050226;28;20139;-71
2021/11/25 11:05:55;;;;;;;45.53;27.77;;;;;;;;;;5036881;28;20083;-71
2021/11/25 11:08:24;;;;;;;50.75;29.33;;;;;;;;;;5038836;28;20048;-71
2021/11/25 11:11:08;;;;;;;51.60;30.08;;;;;;;;;;5046921;28;20044;-71
2021/11/25 11:13:39;;;;;;;50.20;29.42;;;;;;;;;;5051137;28;20082;-71
2021/11/25 11:18:44;;;;;;;45.78;28.15;;;;;;;;;;5055853;28;20098;-71
2021/11/25 11:21:29;;;;;;;51.13;29.60;;;;;;;;;;5048209;28;20055;-71
2021/11/25 11:23:56;;;;;;;52.45;29.95;;;;;;;;;;5055013;28;20129;-71
2021/11/25 11:26:23;;;;;;;55.72;29.02;;;;;;;;;;5044518;28;20056;-71
2021/11/25 11:28:49;;;;;;;57.17;29.83;;;;;;;;;;5055102;28;20392;-71
2021/11/25 11:31:16;;;;;;;53.97;28.88;;;;;;;;;;5041301;28;20062;-71
2021/11/25 11:33:42;;;;;;;48.22;27.98;;;;;;;;;;5050554;28;20091;-72
2021/11/25 11:36:09;;;;;;;49.20;28.80;;;;;;;;;;5062102;28;20711;-71
2021/11/25 11:38:36;;;;;;;53.22;28.13;;;;;;;;;;5036803;28;20045;-71
2021/11/25 11:41:03;;;;;;;51.60;28.05;;;;;;;;;;5057132;28;20052;-72
2021/11/25 11:43:31;;;;;;;50.90;29.83;;;;;;;;;;5050814;28;20067;-72
2021/11/25 11:45:57;;;;;;;50.78;29.25;;;;;;;;;;5062344;28;20427;-72
2021/11/25 11:48:24;;;;;;;54.38;29.73;;;;;;;;;;5062102;28;20056;-72
2021/11/25 11:50:53;;;;;;;48.20;27.75;;;;;;;;;;5054520;28;20070;-70
2021/11/25 11:53:21;;;;;;;56.42;29.95;;;;;;;;;;5058827;28;20052;-70
2021/11/25 11:56:01;;;;;;;62.47;31.52;;;;;;;;;;5044862;28;20040;-69
2021/11/25 11:58:33;;;;;;;58.80;30.25;;;;;;;;;;5060909;28;20470;-70
2021/11/25 12:01:05;;;;;;;55.05;30.25;;;;;;;;;;5035806;28;20044;-70
2021/11/25 12:03:48;;;;;;;53.97;29.00;;;;;;;;;;5059816;28;20054;-69
2021/11/25 12:06:31;;;;;;;55.28;30.50;;;;;;;;;;5053898;28;20051;-69
2021/11/25 12:08:58;;;;;;;59.55;30.88;;;;;;;;;;5056646;28;20048;-69
2021/11/25 12:11:34;;;;;;;61.55;30.38;;;;;;;;;;5055347;28;20594;-70
2021/11/25 12:14:02;;;;;;;60.15;31.70;;;;;;;;;;5061624;28;20866;-69
2021/11/25 12:16:31;;;;;;;56.67;29.92;;;;;;;;;;5061501;28;20045;-70
2021/11/25 12:18:58;;;;;;;61.35;31.63;;;;;;;;;;5051790;28;20135;-70
2021/11/25 12:21:42;;;;;;;60.10;30.55;;;;;;;;;;5054788;28;20047;-69
2021/11/25 12:24:14;;;;;;;59.85;32.55;;;;;;;;;;5047918;28;20519;-69
2021/11/25 12:26:56;;;;;;;60.58;33.53;;;;;;;;;;5060169;28;20052;-70
2021/11/25 12:29:32;;;;;;;60.38;31.80;;;;;;;;;;5051617;28;20839;-69
2021/11/25 12:32:26;;;;;;;62.47;32.53;;;;;;;;;;5060333;28;20048;-69
2021/11/25 12:34:57;;;;;;;55.72;30.40;;;;;;;;;;5051329;28;20495;-69
2021/11/25 12:37:42;;;;;;;59.15;32.30;;;;;;;;;;5054458;28;20044;-69
2021/11/25 12:40:14;;;;;;;63.45;33.28;;;;;;;;;;5052270;28;20568;-69
2021/11/25 12:42:41;;;;;;;61.58;32.45;;;;;;;;;;5057720;28;20421;-69
2021/11/25 12:45:27;;;;;;;61.92;31.05;;;;;;;;;;5058871;28;20063;-69
2021/11/25 12:48:05;;;;;;;59.92;32.50;;;;;;;;;;5052287;28;20052;-70
2021/11/25 12:50:33;;;;;;;61.58;31.65;;;;;;;;;;5037743;28;20052;-69
2021/11/25 12:53:13;;;;;;;60.58;31.55;;;;;;;;;;5048180;28;20064;-71
2021/11/25 12:55:40;;;;;;;60.53;30.70;;;;;;;;;;5059934;28;20083;-69
2021/11/25 12:58:08;;;;;;;58.60;31.63;;;;;;;;;;5051124;28;20075;-69
2021/11/25 13:00:36;;;;;;;61.85;31.33;;;;;;;;;;5057829;28;20663;-69
2021/11/25 13:03:04;;;;;;;65.80;32.72;;;;;;;;;;5048766;28;20048;-69
2021/11/25 13:05:31;;;;;;;61.47;32.57;;;;;;;;;;5048144;28;20199;-69
2021/11/25 13:07:59;;;;;;;73.13;33.03;;;;;;;;;;5056363;28;20048;-69
2021/11/25 13:10:30;;;;;;;65.22;32.85;;;;;;;;;;5049885;28;20058;-69
2021/11/25 13:13:07;;;;;;;60.50;30.85;;;;;;;;;;5059557;28;20048;-69
2021/11/25 13:15:34;;;;;;;65.55;33.03;;;;;;;;;;5052369;28;20079;-70
2021/11/25 13:18:02;;;;;;;70.55;34.80;;;;;;;;;;5055667;28;20596;-71
2021/11/25 13:20:46;;;;;;;69.50;32.42;;;;;;;;;;5047168;28;20446;-71
2021/11/25 13:23:14;;;;;;;67.47;32.92;;;;;;;;;;5059502;28;20071;-70
2021/11/25 13:25:49;;;;;;;63.88;33.42;;;;;;;;;;5058884;28;20048;-69
2021/11/25 13:28:32;;;;;;;60.33;32.13;;;;;;;;;;5052562;28;20651;-70
2021/11/25 13:31:18;;;;;;;64.25;32.60;;;;;;;;;;5057025;28;21285;-72
2021/11/25 13:34:02;;;;;;;64.18;31.50;;;;;;;;;;5043725;28;20897;-70
2021/11/25 13:36:41;;;;;;;58.72;31.80;;;;;;;;;;5056134;28;20501;-70
2021/11/25 13:39:12;;;;;;;63.72;31.65;;;;;;;;;;5049802;28;20044;-69
2021/11/25 13:41:39;;;;;;;70.05;31.42;;;;;;;;;;5058500;28;20044;-69
2021/11/25 13:44:05;;;;;;;61.95;32.30;;;;;;;;;;5050355;28;20486;-70
2021/11/25 13:46:33;;;;;;;63.22;29.98;;;;;;;;;;5034456;28;20334;-70
2021/11/25 13:49:00;;;;;;;59.08;31.33;;;;;;;;;;5050681;28;20082;-70
2021/11/25 13:51:27;;;;;;;67.50;31.73;;;;;;;;;;5035791;28;20040;-69
2021/11/25 13:54:07;;;;;;;58.38;31.58;;;;;;;;;;5059270;28;20045;-70
2021/11/25 13:56:34;;;;;;;57.65;30.13;;;;;;;;;;5050919;28;20308;-69
2021/11/25 13:59:00;;;;;;;66.32;31.90;;;;;;;;;;5057024;28;20990;-69
2021/11/25 14:01:29;;;;;;;56.80;30.23;;;;;;;;;;5023847;28;20047;-70
2021/11/25 14:03:56;;;;;;;60.33;31.50;;;;;;;;;;5057369;28;20048;-70
2021/11/25 14:06:23;;;;;;;62.00;29.73;;;;;;;;;;5052542;28;20049;-70
2021/11/25 14:08:51;;;;;;;62.53;30.63;;;;;;;;;;5054263;28;20843;-69
2021/11/25 14:11:17;;;;;;;61.05;31.50;;;;;;;;;;5056979;28;20048;-70
2021/11/25 14:13:44;;;;;;;70.05;32.95;;;;;;;;;;5043064;28;20225;-69
2021/11/25 14:16:14;;;;;;;57.78;28.50;;;;;;;;;;5052051;28;20044;-70
2021/11/25 14:18:40;;;;;;;58.05;30.17;;;;;;;;;;5049195;28;20075;-72
2021/11/25 14:21:07;;;;;;;60.45;30.90;;;;;;;;;;5056866;28;20056;-69
2021/11/25 14:23:33;;;;;;;52.53;27.08;;;;;;;;;;5056805;28;20048;-69
2021/11/25 14:26:17;;;;;;;57.25;28.60;;;;;;;;;;5049012;28;20059;-70
2021/11/25 14:31:28;;;;;;;54.72;29.58;;;;;;;;;;5047125;28;20050;-71
2021/11/25 14:33:56;;;;;;;60.22;30.55;;;;;;;;;;5056844;28;20048;-69
2021/11/25 14:36:30;;;;;;;59.60;29.92;;;;;;;;;;5048791;28;20048;-70
2021/11/25 14:38:58;;;;;;;59.03;30.95;;;;;;;;;;5056144;28;20049;-70